sensor_id;sensor_type;location;lat;lon;timestamp;pressure;altitude;pressure_sealevel;temperature;humidity
27429;BME280;14881;48.092;11.574;2023-03-19T00:02:05;95112.50;;;4.04;100.00
27429;BME280;14881;48.092;11.574;2023-03-19T00:04:43;95110.56;;;3.94;100.00
27429;BME280;14881;48.092;11.574;2023-03-19T00:07:14;95109.69;;;3.89;100.00
27429;BME280;14881;48.092;11.574;2023-03-19T00:09:42;95103.25;;;3.90;100.00
27429;BME280;14881;48.092;11.574;2023-03-19T00:12:13;95107.22;;;3.82;100.00
27429;BME280;14881;48.092;11.574;2023-03-19T00:14:41;95107.97;;;3.72;100.00
27429;BME280;14881;48.092;11.574;2023-03-19T00:17:10;95103.34;;;3.68;100.00
27429;BME280;14881;48.092;11.574;2023-03-19T00:19:37;95106.28;;;3.61;100.00
27429;BME280;14881;48.092;11.574;2023-03-19T00:22:06;95105.47;;;3.61;100.00
27429;BME280;14881;48.092;11.574;2023-03-19T00:24:35;95109.22;;;3.65;100.00
27429;BME280;14881;48.092;11.574;2023-03-19T00:27:03;95108.72;;;3.68;100.00
27429;BME280;14881;48.092;11.574;2023-03-19T00:29:31;95104.66;;;3.65;100.00
27429;BME280;14881;48.092;11.574;2023-03-19T00:31:58;95109.22;;;3.65;100.00
27429;BME280;14881;48.092;11.574;2023-03-19T00:34:26;95114.59;;;3.60;100.00
27429;BME280;14881;48.092;11.574;2023-03-19T00:36:54;95106.47;;;3.55;100.00
27429;BME280;14881;48.092;11.574;2023-03-19T00:39:22;95112.56;;;3.45;100.00
27429;BME280;14881;48.092;11.574;2023-03-19T00:41:51;95123.25;;;3.40;100.00
27429;BME280;14881;48.092;11.574;2023-03-19T00:44:19;95115.22;;;3.40;100.00
27429;BME280;14881;48.092;11.574;2023-03-19T00:46:47;95119.75;;;3.39;100.00
27429;BME280;14881;48.092;11.574;2023-03-19T00:49:15;95123.19;;;3.35;100.00
27429;BME280;14881;48.092;11.574;2023-03-19T00:51:43;95126.91;;;3.29;100.00
27429;BME280;14881;48.092;11.574;2023-03-19T00:54:11;95128.97;;;3.22;100.00
27429;BME280;14881;48.092;11.574;2023-03-19T00:56:39;95127.59;;;3.19;100.00
27429;BME280;14881;48.092;11.574;2023-03-19T00:59:08;95131.34;;;3.18;100.00
27429;BME280;14881;48.092;11.574;2023-03-19T01:01:36;95129.38;;;3.08;100.00
27429;BME280;14881;48.092;11.574;2023-03-19T01:04:04;95129.50;;;2.97;100.00
27429;BME280;14881;48.092;11.574;2023-03-19T01:06:33;95135.56;;;2.87;100.00
27429;BME280;14881;48.092;11.574;2023-03-19T01:09:01;95129.56;;;2.80;100.00
27429;BME280;14881;48.092;11.574;2023-03-19T01:11:28;95127.91;;;2.74;100.00
27429;BME280;14881;48.092;11.574;2023-03-19T01:13:57;95128.47;;;2.76;100.00
27429;BME280;14881;48.092;11.574;2023-03-19T01:16:26;95129.53;;;2.75;100.00
27429;BME280;14881;48.092;11.574;2023-03-19T01:18:54;95131.66;;;2.73;100.00
27429;BME280;14881;48.092;11.574;2023-03-19T01:21:22;95128.59;;;2.64;100.00
27429;BME280;14881;48.092;11.574;2023-03-19T01:23:50;95132.97;;;2.70;100.00
27429;BME280;14881;48.092;11.574;2023-03-19T01:26:18;95126.22;;;2.68;100.00
27429;BME280;14881;48.092;11.574;2023-03-19T01:28:46;95138.81;;;2.67;100.00
27429;BME280;14881;48.092;11.574;2023-03-19T01:31:14;95140.44;;;2.68;100.00
27429;BME280;14881;48.092;11.574;2023-03-19T01:33:44;95146.63;;;2.69;100.00
27429;BME280;14881;48.092;11.574;2023-03-19T01:36:12;95145.00;;;2.68;100.00
27429;BME280;14881;48.092;11.574;2023-03-19T01:38:40;95148.66;;;2.62;100.00
27429;BME280;14881;48.092;11.574;2023-03-19T01:41:08;95142.69;;;2.55;100.00
27429;BME280;14881;48.092;11.574;2023-03-19T01:43:36;95154.72;;;2.52;100.00
27429;BME280;14881;48.092;11.574;2023-03-19T01:46:06;95143.19;;;2.52;100.00
27429;BME280;14881;48.092;11.574;2023-03-19T01:48:38;95145.69;;;2.58;100.00
27429;BME280;14881;48.092;11.574;2023-03-19T01:51:11;95150.72;;;2.55;100.00
27429;BME280;14881;48.092;11.574;2023-03-19T01:53:42;95153.41;;;2.55;100.00
27429;BME280;14881;48.092;11.574;2023-03-19T01:56:14;95146.34;;;2.49;100.00
27429;BME280;14881;48.092;11.574;2023-03-19T01:58:43;95141.69;;;2.39;100.00
27429;BME280;14881;48.092;11.574;2023-03-19T02:01:13;95140.28;;;2.36;100.00
27429;BME280;14881;48.092;11.574;2023-03-19T02:03:41;95146.78;;;2.40;100.00
27429;BME280;14881;48.092;11.574;2023-03-19T02:06:11;95143.22;;;2.35;100.00
27429;BME280;14881;48.092;11.574;2023-03-19T02:08:40;95149.88;;;2.32;100.00
27429;BME280;14881;48.092;11.574;2023-03-19T02:11:09;95154.03;;;2.40;100.00
27429;BME280;14881;48.092;11.574;2023-03-19T02:13:37;95160.19;;;2.40;100.00
27429;BME280;14881;48.092;11.574;2023-03-19T02:16:06;95157.34;;;2.30;100.00
27429;BME280;14881;48.092;11.574;2023-03-19T02:18:34;95152.47;;;2.27;100.00
27429;BME280;14881;48.092;11.574;2023-03-19T02:21:06;95137.16;;;2.23;100.00
27429;BME280;14881;48.092;11.574;2023-03-19T02:23:40;95142.81;;;2.26;100.00
27429;BME280;14881;48.092;11.574;2023-03-19T02:26:14;95139.66;;;2.29;100.00
27429;BME280;14881;48.092;11.574;2023-03-19T02:28:45;95139.59;;;2.24;100.00
27429;BME280;14881;48.092;11.574;2023-03-19T02:31:14;95142.19;;;2.19;100.00
27429;BME280;14881;48.092;11.574;2023-03-19T02:33:56;95141.38;;;2.19;100.00
27429;BME280;14881;48.092;11.574;2023-03-19T02:36:26;95143.34;;;2.23;100.00
27429;BME280;14881;48.092;11.574;2023-03-19T02:38:56;95147.63;;;2.24;100.00
27429;BME280;14881;48.092;11.574;2023-03-19T02:41:27;95147.94;;;2.28;100.00
27429;BME280;14881;48.092;11.574;2023-03-19T02:43:57;95159.22;;;2.30;100.00
27429;BME280;14881;48.092;11.574;2023-03-19T02:46:27;95156.88;;;2.33;100.00
27429;BME280;14881;48.092;11.574;2023-03-19T02:48:54;95157.91;;;2.32;100.00
27429;BME280;14881;48.092;11.574;2023-03-19T02:51:22;95158.91;;;2.26;100.00
27429;BME280;14881;48.092;11.574;2023-03-19T02:53:50;95159.94;;;2.25;100.00
27429;BME280;14881;48.092;11.574;2023-03-19T02:56:18;95163.88;;;2.18;100.00
27429;BME280;14881;48.092;11.574;2023-03-19T02:58:47;95166.72;;;2.11;100.00
27429;BME280;14881;48.092;11.574;2023-03-19T03:01:14;95162.97;;;2.12;100.00
27429;BME280;14881;48.092;11.574;2023-03-19T03:03:43;95169.09;;;2.07;100.00
27429;BME280;14881;48.092;11.574;2023-03-19T03:06:11;95173.38;;;2.08;100.00
27429;BME280;14881;48.092;11.574;2023-03-19T03:08:39;95176.81;;;2.04;100.00
27429;BME280;14881;48.092;11.574;2023-03-19T03:11:07;95182.22;;;2.09;100.00
27429;BME280;14881;48.092;11.574;2023-03-19T03:13:35;95181.09;;;2.05;100.00
27429;BME280;14881;48.092;11.574;2023-03-19T03:16:07;95189.38;;;2.03;100.00
27429;BME280;14881;48.092;11.574;2023-03-19T03:18:35;95186.28;;;1.95;100.00
27429;BME280;14881;48.092;11.574;2023-03-19T03:21:03;95181.97;;;1.94;100.00
27429;BME280;14881;48.092;11.574;2023-03-19T03:23:30;95186.53;;;1.93;100.00
27429;BME280;14881;48.092;11.574;2023-03-19T03:25:58;95182.31;;;1.97;100.00
27429;BME280;14881;48.092;11.574;2023-03-19T03:28:26;95182.22;;;1.92;100.00
27429;BME280;14881;48.092;11.574;2023-03-19T03:30:57;95184.41;;;1.95;100.00
27429;BME280;14881;48.092;11.574;2023-03-19T03:33:26;95181.00;;;2.00;100.00
27429;BME280;14881;48.092;11.574;2023-03-19T03:35:54;95182.97;;;2.04;100.00
27429;BME280;14881;48.092;11.574;2023-03-19T03:38:22;95189.63;;;2.02;100.00
27429;BME280;14881;48.092;11.574;2023-03-19T03:40:50;95190.75;;;2.06;100.00
27429;BME280;14881;48.092;11.574;2023-03-19T03:43:21;95190.25;;;2.09;100.00
27429;BME280;14881;48.092;11.574;2023-03-19T03:45:50;95199.44;;;2.13;100.00
27429;BME280;14881;48.092;11.574;2023-03-19T03:48:18;95198.38;;;2.14;100.00
27429;BME280;14881;48.092;11.574;2023-03-19T03:50:48;95190.44;;;2.19;100.00
27429;BME280;14881;48.092;11.574;2023-03-19T03:53:17;95196.59;;;2.20;100.00
27429;BME280;14881;48.092;11.574;2023-03-19T03:55:44;95202.09;;;2.30;100.00
27429;BME280;14881;48.092;11.574;2023-03-19T03:58:12;95202.34;;;2.28;100.00
27429;BME280;14881;48.092;11.574;2023-03-19T04:00:40;95193.66;;;2.38;100.00
27429;BME280;14881;48.092;11.574;2023-03-19T04:03:07;95193.22;;;2.46;100.00
27429;BME280;14881;48.092;11.574;2023-03-19T04:05:35;95205.97;;;2.56;100.00
27429;BME280;14881;48.092;11.574;2023-03-19T04:08:06;95200.13;;;2.59;100.00
27429;BME280;14881;48.092;11.574;2023-03-19T04:10:34;95197.97;;;2.61;100.00
27429;BME280;14881;48.092;11.574;2023-03-19T04:13:02;95203.41;;;2.66;100.00
27429;BME280;14881;48.092;11.574;2023-03-19T04:15:30;95194.97;;;2.74;100.00
27429;BME280;14881;48.092;11.574;2023-03-19T04:17:57;95191.91;;;2.87;100.00
27429;BME280;14881;48.092;11.574;2023-03-19T04:20:25;95207.81;;;2.94;100.00
27429;BME280;14881;48.092;11.574;2023-03-19T04:22:53;95208.13;;;2.97;100.00
27429;BME280;14881;48.092;11.574;2023-03-19T04:25:22;95211.19;;;3.06;100.00
27429;BME280;14881;48.092;11.574;2023-03-19T04:27:50;95204.81;;;3.12;100.00
27429;BME280;14881;48.092;11.574;2023-03-19T04:30:18;95212.31;;;3.10;100.00
27429;BME280;14881;48.092;11.574;2023-03-19T04:32:46;95212.94;;;3.17;100.00
27429;BME280;14881;48.092;11.574;2023-03-19T04:35:14;95216.41;;;3.18;100.00
27429;BME280;14881;48.092;11.574;2023-03-19T04:37:43;95218.59;;;3.21;100.00
27429;BME280;14881;48.092;11.574;2023-03-19T04:40:14;95212.19;;;3.22;100.00
27429;BME280;14881;48.092;11.574;2023-03-19T04:42:43;95220.31;;;3.27;100.00
27429;BME280;14881;48.092;11.574;2023-03-19T04:45:11;95216.84;;;3.31;100.00
27429;BME280;14881;48.092;11.574;2023-03-19T04:47:39;95214.16;;;3.31;100.00
27429;BME280;14881;48.092;11.574;2023-03-19T04:50:09;95223.03;;;3.32;100.00
27429;BME280;14881;48.092;11.574;2023-03-19T04:52:38;95213.41;;;3.36;100.00
27429;BME280;14881;48.092;11.574;2023-03-19T04:55:08;95218.84;;;3.41;100.00
27429;BME280;14881;48.092;11.574;2023-03-19T04:57:36;95221.31;;;3.47;100.00
27429;BME280;14881;48.092;11.574;2023-03-19T05:00:07;95222.75;;;3.55;100.00
27429;BME280;14881;48.092;11.574;2023-03-19T05:02:35;95216.06;;;3.58;100.00
27429;BME280;14881;48.092;11.574;2023-03-19T05:05:03;95220.16;;;3.65;100.00
27429;BME280;14881;48.092;11.574;2023-03-19T05:07:31;95219.09;;;3.66;100.00
27429;BME280;14881;48.092;11.574;2023-03-19T05:09:58;95224.34;;;3.78;100.00
27429;BME280;14881;48.092;11.574;2023-03-19T05:12:26;95234.63;;;3.86;100.00
27429;BME280;14881;48.092;11.574;2023-03-19T05:14:54;95235.22;;;3.93;100.00
27429;BME280;14881;48.092;11.574;2023-03-19T05:17:23;95252.72;;;3.96;100.00
27429;BME280;14881;48.092;11.574;2023-03-19T05:19:51;95250.06;;;4.01;100.00
27429;BME280;14881;48.092;11.574;2023-03-19T05:22:19;95250.38;;;4.04;100.00
27429;BME280;14881;48.092;11.574;2023-03-19T05:24:47;95255.03;;;4.14;100.00
27429;BME280;14881;48.092;11.574;2023-03-19T05:27:15;95252.50;;;4.34;100.00
27429;BME280;14881;48.092;11.574;2023-03-19T05:29:43;95251.50;;;4.40;100.00
27429;BME280;14881;48.092;11.574;2023-03-19T05:32:14;95254.84;;;4.58;100.00
27429;BME280;14881;48.092;11.574;2023-03-19T05:34:43;95262.19;;;4.67;100.00
27429;BME280;14881;48.092;11.574;2023-03-19T05:37:11;95262.81;;;4.79;100.00
27429;BME280;14881;48.092;11.574;2023-03-19T05:39:38;95267.44;;;4.89;100.00
27429;BME280;14881;48.092;11.574;2023-03-19T05:42:07;95271.53;;;4.97;100.00
27429;BME280;14881;48.092;11.574;2023-03-19T05:44:35;95270.56;;;5.13;100.00
27429;BME280;14881;48.092;11.574;2023-03-19T05:47:03;95281.72;;;5.37;100.00
27429;BME280;14881;48.092;11.574;2023-03-19T05:49:31;95278.84;;;5.64;100.00
27429;BME280;14881;48.092;11.574;2023-03-19T05:52:00;95274.94;;;5.97;100.00
27429;BME280;14881;48.092;11.574;2023-03-19T05:54:28;95273.66;;;6.19;100.00
27429;BME280;14881;48.092;11.574;2023-03-19T05:56:55;95279.06;;;6.40;100.00
27429;BME280;14881;48.092;11.574;2023-03-19T05:59:23;95277.72;;;6.62;100.00
27429;BME280;14881;48.092;11.574;2023-03-19T06:01:51;95280.41;;;6.88;100.00
27429;BME280;14881;48.092;11.574;2023-03-19T06:04:19;95274.69;;;7.15;100.00
27429;BME280;14881;48.092;11.574;2023-03-19T06:06:47;95274.91;;;7.28;100.00
27429;BME280;14881;48.092;11.574;2023-03-19T06:09:17;95278.63;;;7.48;100.00
27429;BME280;14881;48.092;11.574;2023-03-19T06:11:44;95277.25;;;7.60;100.00
27429;BME280;14881;48.092;11.574;2023-03-19T06:14:12;95288.56;;;7.73;100.00
27429;BME280;14881;48.092;11.574;2023-03-19T06:16:40;95289.59;;;7.82;100.00
27429;BME280;14881;48.092;11.574;2023-03-19T06:19:08;95295.78;;;7.87;100.00
27429;BME280;14881;48.092;11.574;2023-03-19T06:21:36;95297.69;;;7.87;100.00
27429;BME280;14881;48.092;11.574;2023-03-19T06:24:04;95301.44;;;7.96;100.00
27429;BME280;14881;48.092;11.574;2023-03-19T06:26:34;95299.22;;;8.03;100.00
27429;BME280;14881;48.092;11.574;2023-03-19T06:29:02;95307.31;;;8.13;100.00
27429;BME280;14881;48.092;11.574;2023-03-19T06:31:30;95316.19;;;8.19;100.00
27429;BME280;14881;48.092;11.574;2023-03-19T06:34:00;95308.31;;;8.27;100.00
27429;BME280;14881;48.092;11.574;2023-03-19T06:36:27;95308.81;;;8.34;100.00
27429;BME280;14881;48.092;11.574;2023-03-19T06:38:55;95322.59;;;8.43;100.00
27429;BME280;14881;48.092;11.574;2023-03-19T06:41:23;95324.47;;;8.43;100.00
27429;BME280;14881;48.092;11.574;2023-03-19T06:43:52;95325.56;;;8.47;100.00
27429;BME280;14881;48.092;11.574;2023-03-19T06:46:20;95326.56;;;8.56;100.00
27429;BME280;14881;48.092;11.574;2023-03-19T06:48:47;95327.59;;;8.65;100.00
27429;BME280;14881;48.092;11.574;2023-03-19T06:51:15;95328.09;;;8.67;100.00
27429;BME280;14881;48.092;11.574;2023-03-19T06:53:45;95337.00;;;8.72;100.00
27429;BME280;14881;48.092;11.574;2023-03-19T06:56:13;95327.19;;;8.82;100.00
27429;BME280;14881;48.092;11.574;2023-03-19T06:58:41;95335.78;;;8.89;100.00
27429;BME280;14881;48.092;11.574;2023-03-19T07:01:13;95342.88;;;8.85;100.00
27429;BME280;14881;48.092;11.574;2023-03-19T07:03:40;95347.44;;;8.89;100.00
27429;BME280;14881;48.092;11.574;2023-03-19T07:06:08;95350.69;;;8.91;100.00
27429;BME280;14881;48.092;11.574;2023-03-19T07:08:36;95352.28;;;8.97;100.00
27429;BME280;14881;48.092;11.574;2023-03-19T07:11:04;95360.06;;;9.04;100.00
27429;BME280;14881;48.092;11.574;2023-03-19T07:13:32;95369.00;;;9.04;100.00
27429;BME280;14881;48.092;11.574;2023-03-19T07:16:00;95371.94;;;9.08;100.00
27429;BME280;14881;48.092;11.574;2023-03-19T07:18:30;95374.34;;;9.15;100.00
27429;BME280;14881;48.092;11.574;2023-03-19T07:20:58;95376.78;;;9.16;100.00
27429;BME280;14881;48.092;11.574;2023-03-19T07:23:29;95392.97;;;9.21;100.00
27429;BME280;14881;48.092;11.574;2023-03-19T07:25:56;95388.59;;;9.30;100.00
27429;BME280;14881;48.092;11.574;2023-03-19T07:28:24;95386.94;;;9.34;100.00
27429;BME280;14881;48.092;11.574;2023-03-19T07:30:52;95393.94;;;9.35;100.00
27429;BME280;14881;48.092;11.574;2023-03-19T07:33:20;95404.75;;;9.40;100.00
27429;BME280;14881;48.092;11.574;2023-03-19T07:35:49;95409.09;;;9.41;100.00
27429;BME280;14881;48.092;11.574;2023-03-19T07:38:17;95415.31;;;9.42;100.00
27429;BME280;14881;48.092;11.574;2023-03-19T07:40:44;95409.56;;;9.49;100.00
27429;BME280;14881;48.092;11.574;2023-03-19T07:43:27;95411.75;;;9.47;100.00
27429;BME280;14881;48.092;11.574;2023-03-19T07:45:54;95415.47;;;9.56;100.00
27429;BME280;14881;48.092;11.574;2023-03-19T07:48:22;95413.09;;;9.49;100.00
27429;BME280;14881;48.092;11.574;2023-03-19T07:50:52;95414.94;;;9.54;100.00
27429;BME280;14881;48.092;11.574;2023-03-19T07:53:19;95415.69;;;9.59;100.00
27429;BME280;14881;48.092;11.574;2023-03-19T07:55:47;95417.81;;;9.67;100.00
27429;BME280;14881;48.092;11.574;2023-03-19T07:58:15;95420.53;;;9.67;100.00
27429;BME280;14881;48.092;11.574;2023-03-19T08:00:43;95416.94;;;9.72;100.00
27429;BME280;14881;48.092;11.574;2023-03-19T08:03:11;95410.63;;;9.82;100.00
27429;BME280;14881;48.092;11.574;2023-03-19T08:05:39;95415.19;;;9.86;100.00
27429;BME280;14881;48.092;11.574;2023-03-19T08:08:08;95417.31;;;9.89;100.00
27429;BME280;14881;48.092;11.574;2023-03-19T08:10:36;95418.41;;;9.88;100.00
27429;BME280;14881;48.092;11.574;2023-03-19T08:13:05;95417.59;;;9.88;100.00
27429;BME280;14881;48.092;11.574;2023-03-19T08:15:32;95421.06;;;9.93;100.00
27429;BME280;14881;48.092;11.574;2023-03-19T08:18:02;95419.72;;;9.91;100.00
27429;BME280;14881;48.092;11.574;2023-03-19T08:20:31;95420.78;;;9.95;100.00
27429;BME280;14881;48.092;11.574;2023-03-19T08:22:59;95422.63;;;9.99;100.00
27429;BME280;14881;48.092;11.574;2023-03-19T08:25:28;95417.66;;;10.06;100.00
27429;BME280;14881;48.092;11.574;2023-03-19T08:27:58;95416.28;;;10.09;100.00
27429;BME280;14881;48.092;11.574;2023-03-19T08:30:26;95418.41;;;10.12;100.00
27429;BME280;14881;48.092;11.574;2023-03-19T08:32:54;95408.28;;;10.23;100.00
27429;BME280;14881;48.092;11.574;2023-03-19T08:35:22;95417.13;;;10.33;100.00
27429;BME280;14881;48.092;11.574;2023-03-19T08:37:52;95418.78;;;10.29;100.00
27429;BME280;14881;48.092;11.574;2023-03-19T08:40:20;95424.34;;;10.19;100.00
27429;BME280;14881;48.092;11.574;2023-03-19T08:42:49;95424.88;;;10.21;100.00
27429;BME280;14881;48.092;11.574;2023-03-19T08:45:18;95435.31;;;10.33;100.00
27429;BME280;14881;48.092;11.574;2023-03-19T08:47:46;95438.56;;;10.35;100.00
27429;BME280;14881;48.092;11.574;2023-03-19T08:50:14;95439.81;;;10.42;100.00
27429;BME280;14881;48.092;11.574;2023-03-19T08:52:42;95446.13;;;10.38;100.00
27429;BME280;14881;48.092;11.574;2023-03-19T08:55:10;95445.78;;;10.44;100.00
27429;BME280;14881;48.092;11.574;2023-03-19T08:57:38;95446.53;;;10.50;100.00
27429;BME280;14881;48.092;11.574;2023-03-19T09:00:09;95444.72;;;10.64;100.00
27429;BME280;14881;48.092;11.574;2023-03-19T09:02:37;95435.03;;;10.77;100.00
27429;BME280;14881;48.092;11.574;2023-03-19T09:05:06;95438.56;;;10.77;100.00
27429;BME280;14881;48.092;11.574;2023-03-19T09:07:34;95433.59;;;10.85;100.00
27429;BME280;14881;48.092;11.574;2023-03-19T09:10:02;95444.31;;;10.95;100.00
27429;BME280;14881;48.092;11.574;2023-03-19T09:12:29;95448.13;;;11.12;100.00
27429;BME280;14881;48.092;11.574;2023-03-19T09:14:58;95451.53;;;11.23;100.00
27429;BME280;14881;48.092;11.574;2023-03-19T09:17:27;95453.63;;;11.26;100.00
27429;BME280;14881;48.092;11.574;2023-03-19T09:19:55;95457.97;;;11.27;100.00
27429;BME280;14881;48.092;11.574;2023-03-19T09:22:22;95456.63;;;11.43;100.00
27429;BME280;14881;48.092;11.574;2023-03-19T09:24:50;95456.78;;;11.52;100.00
27429;BME280;14881;48.092;11.574;2023-03-19T09:27:18;95458.72;;;11.65;100.00
27429;BME280;14881;48.092;11.574;2023-03-19T09:29:46;95448.44;;;11.62;100.00
27429;BME280;14881;48.092;11.574;2023-03-19T09:32:14;95455.47;;;11.31;100.00
27429;BME280;14881;48.092;11.574;2023-03-19T09:34:43;95456.34;;;11.26;100.00
27429;BME280;14881;48.092;11.574;2023-03-19T09:37:12;95463.63;;;11.31;100.00
27429;BME280;14881;48.092;11.574;2023-03-19T09:39:40;95462.53;;;11.32;100.00
27429;BME280;14881;48.092;11.574;2023-03-19T09:42:18;95462.59;;;11.27;100.00
27429;BME280;14881;48.092;11.574;2023-03-19T09:44:47;95467.69;;;11.33;100.00
27429;BME280;14881;48.092;11.574;2023-03-19T09:47:24;95475.03;;;11.33;100.00
27429;BME280;14881;48.092;11.574;2023-03-19T09:49:55;95477.44;;;11.34;100.00
27429;BME280;14881;48.092;11.574;2023-03-19T09:52:32;95482.25;;;11.24;100.00
27429;BME280;14881;48.092;11.574;2023-03-19T09:55:08;95473.13;;;11.14;100.00
27429;BME280;14881;48.092;11.574;2023-03-19T09:57:39;95484.06;;;11.28;100.00
27429;BME280;14881;48.092;11.574;2023-03-19T10:00:19;95473.47;;;11.27;100.00
27429;BME280;14881;48.092;11.574;2023-03-19T10:02:52;95481.44;;;11.23;100.00
27429;BME280;14881;48.092;11.574;2023-03-19T10:05:31;95477.38;;;11.21;100.00
27429;BME280;14881;48.092;11.574;2023-03-19T10:08:15;95471.78;;;11.31;100.00
27429;BME280;14881;48.092;11.574;2023-03-19T10:10:49;95468.31;;;11.44;100.00
27429;BME280;14881;48.092;11.574;2023-03-19T10:13:29;95470.66;;;11.69;100.00
27429;BME280;14881;48.092;11.574;2023-03-19T10:16:03;95458.97;;;12.15;100.00
27429;BME280;14881;48.092;11.574;2023-03-19T10:18:34;95465.66;;;12.50;100.00
27429;BME280;14881;48.092;11.574;2023-03-19T10:21:09;95463.25;;;12.35;100.00
27429;BME280;14881;48.092;11.574;2023-03-19T10:23:41;95444.19;;;12.62;100.00
27429;BME280;14881;48.092;11.574;2023-03-19T10:26:13;95447.88;;;12.94;100.00
27429;BME280;14881;48.092;11.574;2023-03-19T10:28:43;95450.00;;;12.83;100.00
27429;BME280;14881;48.092;11.574;2023-03-19T10:31:24;95450.22;;;12.86;100.00
27429;BME280;14881;48.092;11.574;2023-03-19T10:34:03;95451.25;;;12.63;100.00
27429;BME280;14881;48.092;11.574;2023-03-19T10:36:38;95455.50;;;12.55;100.00
27429;BME280;14881;48.092;11.574;2023-03-19T10:39:06;95451.63;;;12.70;100.00
27429;BME280;14881;48.092;11.574;2023-03-19T10:41:47;95455.69;;;12.73;100.00
27429;BME280;14881;48.092;11.574;2023-03-19T10:44:26;95453.97;;;12.77;100.00
27429;BME280;14881;48.092;11.574;2023-03-19T10:47:08;95463.06;;;12.59;100.00
27429;BME280;14881;48.092;11.574;2023-03-19T10:52:20;95465.66;;;12.23;100.00
27429;BME280;14881;48.092;11.574;2023-03-19T10:55:04;95454.97;;;12.40;100.00
27429;BME280;14881;48.092;11.574;2023-03-19T10:57:36;95449.22;;;12.69;100.00
27429;BME280;14881;48.092;11.574;2023-03-19T11:00:14;95446.56;;;12.91;100.00
27429;BME280;14881;48.092;11.574;2023-03-19T11:02:47;95443.75;;;12.96;100.00
27429;BME280;14881;48.092;11.574;2023-03-19T11:05:23;95436.53;;;13.00;100.00
27429;BME280;14881;48.092;11.574;2023-03-19T11:07:57;95430.25;;;13.27;100.00
27429;BME280;14881;48.092;11.574;2023-03-19T11:10:27;95438.94;;;13.29;100.00
27429;BME280;14881;48.092;11.574;2023-03-19T11:13:23;95432.81;;;13.10;100.00
27429;BME280;14881;48.092;11.574;2023-03-19T11:15:51;95440.47;;;13.08;100.00
27429;BME280;14881;48.092;11.574;2023-03-19T11:18:21;95432.38;;;13.30;100.00
27429;BME280;14881;48.092;11.574;2023-03-19T11:20:54;95433.00;;;13.49;100.00
27429;BME280;14881;48.092;11.574;2023-03-19T11:23:43;95435.03;;;13.44;100.00
27429;BME280;14881;48.092;11.574;2023-03-19T11:26:53;95429.88;;;13.06;100.00
27429;BME280;14881;48.092;11.574;2023-03-19T11:29:25;95428.25;;;13.05;100.00
27429;BME280;14881;48.092;11.574;2023-03-19T11:32:04;95419.09;;;13.15;100.00
27429;BME280;14881;48.092;11.574;2023-03-19T11:34:52;95423.88;;;13.32;100.00
27429;BME280;14881;48.092;11.574;2023-03-19T11:37:31;95423.56;;;13.33;100.00
27429;BME280;14881;48.092;11.574;2023-03-19T11:40:08;95423.34;;;13.66;100.00
27429;BME280;14881;48.092;11.574;2023-03-19T11:42:52;95422.34;;;13.62;100.00
27429;BME280;14881;48.092;11.574;2023-03-19T11:45:29;95419.78;;;13.65;100.00
27429;BME280;14881;48.092;11.574;2023-03-19T11:48:11;95405.75;;;14.11;100.00
27429;BME280;14881;48.092;11.574;2023-03-19T11:50:46;95408.28;;;14.39;100.00
27429;BME280;14881;48.092;11.574;2023-03-19T11:53:23;95399.84;;;14.57;100.00
27429;BME280;14881;48.092;11.574;2023-03-19T11:56:01;95392.03;;;14.90;100.00
27429;BME280;14881;48.092;11.574;2023-03-19T11:58:48;95397.88;;;15.32;100.00
27429;BME280;14881;48.092;11.574;2023-03-19T12:01:32;95395.28;;;15.18;100.00
27429;BME280;14881;48.092;11.574;2023-03-19T12:04:35;95389.69;;;15.58;100.00
27429;BME280;14881;48.092;11.574;2023-03-19T12:07:16;95390.28;;;15.89;100.00
27429;BME280;14881;48.092;11.574;2023-03-19T12:09:54;95386.44;;;15.39;100.00
27429;BME280;14881;48.092;11.574;2023-03-19T12:12:29;95380.31;;;15.33;100.00
27429;BME280;14881;48.092;11.574;2023-03-19T12:15:07;95381.09;;;15.77;100.00
27429;BME280;14881;48.092;11.574;2023-03-19T12:17:45;95372.59;;;16.16;100.00
27429;BME280;14881;48.092;11.574;2023-03-19T12:20:21;95366.50;;;16.49;100.00
27429;BME280;14881;48.092;11.574;2023-03-19T12:22:59;95368.22;;;16.62;100.00
27429;BME280;14881;48.092;11.574;2023-03-19T12:25:47;95369.72;;;16.51;100.00
27429;BME280;14881;48.092;11.574;2023-03-19T12:28:24;95365.72;;;16.10;100.00
27429;BME280;14881;48.092;11.574;2023-03-19T12:31:03;95360.69;;;16.80;100.00
27429;BME280;14881;48.092;11.574;2023-03-19T12:33:41;95350.34;;;16.56;100.00
27429;BME280;14881;48.092;11.574;2023-03-19T12:36:16;95352.72;;;16.95;100.00
27429;BME280;14881;48.092;11.574;2023-03-19T12:38:48;95343.41;;;17.29;98.21
27429;BME280;14881;48.092;11.574;2023-03-19T12:41:21;95342.00;;;17.56;95.79
27429;BME280;14881;48.092;11.574;2023-03-19T12:43:54;95340.22;;;17.93;84.08
27429;BME280;14881;48.092;11.574;2023-03-19T12:46:27;95338.31;;;18.18;86.06
27429;BME280;14881;48.092;11.574;2023-03-19T12:49:02;95335.56;;;18.18;88.84
27429;BME280;14881;48.092;11.574;2023-03-19T12:51:35;95334.19;;;18.49;93.33
27429;BME280;14881;48.092;11.574;2023-03-19T12:54:06;95335.19;;;18.07;85.38
27429;BME280;14881;48.092;11.574;2023-03-19T12:56:42;95331.41;;;17.67;83.75
27429;BME280;14881;48.092;11.574;2023-03-19T12:59:21;95333.34;;;16.92;99.27
27429;BME280;14881;48.092;11.574;2023-03-19T13:01:57;95338.97;;;15.98;95.45
27429;BME280;14881;48.092;11.574;2023-03-19T13:04:29;95330.81;;;15.81;100.00
27429;BME280;14881;48.092;11.574;2023-03-19T13:07:01;95333.91;;;15.45;100.00
27429;BME280;14881;48.092;11.574;2023-03-19T13:09:34;95337.47;;;15.63;100.00